KCMX/CMX METAR and TAF weather

Enter ICAO airport designator
Station Type Date Time Source
KCMX METAR 2022/08/13 11:53 UTC NOAA

KCMX 131153Z AUTO 11004KT 2SM -RA BR OVC002 15/14 A3008 RMK AO2 RAB1057E28B35 SLP187 P0002 60005 70030 T01500139 10167 20150 58000


Station Type Date Time Source
KCMX Decoded METAR 2022/08/13 11:53 UTC NOAA

HANCOCK HOUGHTON CTY. MEMO, MI, United States (KCMX) 47-10N 088-29W 326M
Aug 13, 2022 - 07:53 AM EDT / 2022.08.13 1153 UTC
Wind: from the ESE (110 degrees) at 5 MPH (4 KT):0
Visibility: 2 mile(s):0
Sky conditions: overcast
Weather: light rain; mist
Precipitation last hour: 0.02 inches
Temperature: 59.0 F (15.0 C)
Dew Point: 57.0 F (13.9 C)
Relative Humidity: 93%
Pressure (altimeter): 30.08 in. Hg (1018 hPa)
Pressure tendency: 0.00 inches (0.0 hPa) lower than three hours ago
ob: KCMX 131153Z AUTO 11004KT 2SM -RA BR OVC002 15/14 A3008 RMK AO2 RAB1057E28B35 SLP187 P0002 60005 70030 T01500139 10167 20150 58000
cycle: 12

Station Type Date Time Source
KCMX TAF 2022/08/13 12:40 UTC NOAA

TAF KCMX 131138Z 1312/1412 12006KT 2SM BR BKN003 OVC011
FM131300 13005KT P6SM BKN029
FM131900 10008KT 5SM BR BKN019
FM140200 09005KT 2SM BR BKN027
FM140700 VRB03KT 1/4SM FG BKN002

Example: see airport list